sensor_id;sensor_type;location;lat;lon;timestamp;pressure;altitude;pressure_sealevel;temperature;humidity
25658;BME280;13517;59.320;18.042;2024-02-28T00:01:50;101300.97;;;1.49;100.00
25658;BME280;13517;59.320;18.042;2024-02-28T00:04:16;101244.63;;;1.22;100.00
25658;BME280;13517;59.320;18.042;2024-02-28T00:06:41;101301.72;;;1.57;100.00
25658;BME280;13517;59.320;18.042;2024-02-28T00:09:06;101287.66;;;1.49;100.00
25658;BME280;13517;59.320;18.042;2024-02-28T00:11:32;101283.28;;;1.45;100.00
25658;BME280;13517;59.320;18.042;2024-02-28T00:13:58;101230.59;;;1.14;100.00
25658;BME280;13517;59.320;18.042;2024-02-28T00:16:25;101271.16;;;1.28;100.00
25658;BME280;13517;59.320;18.042;2024-02-28T00:18:51;101257.81;;;1.30;100.00
25658;BME280;13517;59.320;18.042;2024-02-28T00:21:16;101236.66;;;1.20;100.00
25658;BME280;13517;59.320;18.042;2024-02-28T00:23:42;101266.63;;;1.35;100.00
25658;BME280;13517;59.320;18.042;2024-02-28T00:26:07;101260.31;;;1.39;100.00
25658;BME280;13517;59.320;18.042;2024-02-28T00:28:33;101278.66;;;1.55;100.00
25658;BME280;13517;59.320;18.042;2024-02-28T00:30:58;101271.75;;;1.46;100.00
25658;BME280;13517;59.320;18.042;2024-02-28T00:33:23;101268.25;;;1.42;100.00
25658;BME280;13517;59.320;18.042;2024-02-28T00:35:49;101204.88;;;1.14;100.00
25658;BME280;13517;59.320;18.042;2024-02-28T00:38:14;101269.00;;;1.49;100.00
25658;BME280;13517;59.320;18.042;2024-02-28T00:40:40;101220.66;;;1.24;100.00
25658;BME280;13517;59.320;18.042;2024-02-28T00:43:05;101271.59;;;1.54;100.00
25658;BME280;13517;59.320;18.042;2024-02-28T00:45:30;101240.00;;;1.35;100.00
25658;BME280;13517;59.320;18.042;2024-02-28T00:47:56;101254.06;;;1.40;100.00
25658;BME280;13517;59.320;18.042;2024-02-28T00:50:21;101277.91;;;1.48;100.00
25658;BME280;13517;59.320;18.042;2024-02-28T00:52:47;101213.69;;;1.16;100.00
25658;BME280;13517;59.320;18.042;2024-02-28T00:55:12;101264.59;;;1.49;100.00
25658;BME280;13517;59.320;18.042;2024-02-28T00:57:38;101248.84;;;1.34;100.00
25658;BME280;13517;59.320;18.042;2024-02-28T01:00:03;101275.28;;;1.46;100.00
25658;BME280;13517;59.320;18.042;2024-02-28T01:02:31;101246.25;;;1.31;100.00
25658;BME280;13517;59.320;18.042;2024-02-28T01:04:57;101233.91;;;1.27;100.00
25658;BME280;13517;59.320;18.042;2024-02-28T01:07:22;101249.72;;;1.36;100.00
25658;BME280;13517;59.320;18.042;2024-02-28T01:09:48;101265.59;;;1.42;100.00
25658;BME280;13517;59.320;18.042;2024-02-28T01:12:13;101183.88;;;0.95;100.00
25658;BME280;13517;59.320;18.042;2024-02-28T01:14:38;101240.09;;;1.29;100.00
25658;BME280;13517;59.320;18.042;2024-02-28T01:17:04;101247.06;;;1.36;100.00
25658;BME280;13517;59.320;18.042;2024-02-28T01:19:29;101233.94;;;1.25;100.00
25658;BME280;13517;59.320;18.042;2024-02-28T01:21:55;101225.97;;;1.24;100.00
25658;BME280;13517;59.320;18.042;2024-02-28T01:24:21;101248.84;;;1.34;100.00
25658;BME280;13517;59.320;18.042;2024-02-28T01:26:46;101207.66;;;1.06;100.00
25658;BME280;13517;59.320;18.042;2024-02-28T01:29:11;101216.34;;;1.16;100.00
25658;BME280;13517;59.320;18.042;2024-02-28T01:31:37;101247.09;;;1.33;100.00
25658;BME280;13517;59.320;18.042;2024-02-28T01:34:02;101248.81;;;1.37;100.00
25658;BME280;13517;59.320;18.042;2024-02-28T01:36:28;101259.41;;;1.40;100.00
25658;BME280;13517;59.320;18.042;2024-02-28T01:38:54;101248.00;;;1.32;100.00
25658;BME280;13517;59.320;18.042;2024-02-28T01:41:20;101243.63;;;1.29;100.00
25658;BME280;13517;59.320;18.042;2024-02-28T01:43:45;101198.75;;;1.07;100.00
25658;BME280;13517;59.320;18.042;2024-02-28T01:46:22;101196.16;;;1.04;100.00
25658;BME280;13517;59.320;18.042;2024-02-28T01:48:49;101219.94;;;1.15;100.00
25658;BME280;13517;59.320;18.042;2024-02-28T01:51:15;101241.00;;;1.28;100.00
25658;BME280;13517;59.320;18.042;2024-02-28T01:53:41;101232.25;;;1.21;100.00
25658;BME280;13517;59.320;18.042;2024-02-28T01:56:07;101229.59;;;1.19;100.00
25658;BME280;13517;59.320;18.042;2024-02-28T01:58:33;101207.66;;;1.05;100.00
25658;BME280;13517;59.320;18.042;2024-02-28T02:01:01;101229.53;;;1.24;100.00
25658;BME280;13517;59.320;18.042;2024-02-28T02:03:28;101228.75;;;1.17;100.00
25658;BME280;13517;59.320;18.042;2024-02-28T02:05:54;101190.06;;;0.98;100.00
25658;BME280;13517;59.320;18.042;2024-02-28T02:08:19;101200.50;;;1.10;100.00
25658;BME280;13517;59.320;18.042;2024-02-28T02:10:44;101229.44;;;1.29;100.00
25658;BME280;13517;59.320;18.042;2024-02-28T02:13:10;101218.09;;;1.17;100.00
25658;BME280;13517;59.320;18.042;2024-02-28T02:15:35;101197.03;;;1.05;100.00
25658;BME280;13517;59.320;18.042;2024-02-28T02:18:00;101221.69;;;1.15;100.00
25658;BME280;13517;59.320;18.042;2024-02-28T02:20:29;101230.41;;;1.25;100.00
25658;BME280;13517;59.320;18.042;2024-02-28T02:22:57;101217.19;;;1.18;100.00
25658;BME280;13517;59.320;18.042;2024-02-28T02:25:23;101210.19;;;1.14;100.00
25658;BME280;13517;59.320;18.042;2024-02-28T02:27:48;101213.59;;;1.21;100.00
25658;BME280;13517;59.320;18.042;2024-02-28T02:30:14;101195.28;;;1.04;100.00
25658;BME280;13517;59.320;18.042;2024-02-28T02:32:39;101197.84;;;1.08;100.00
25658;BME280;13517;59.320;18.042;2024-02-28T02:35:05;101177.66;;;0.98;100.00
25658;BME280;13517;59.320;18.042;2024-02-28T02:37:30;101189.03;;;1.05;100.00
25658;BME280;13517;59.320;18.042;2024-02-28T02:39:56;101216.34;;;1.16;100.00
25658;BME280;13517;59.320;18.042;2024-02-28T02:42:21;101222.63;;;1.12;100.00
25658;BME280;13517;59.320;18.042;2024-02-28T02:44:46;101213.00;;;1.05;100.00
25658;BME280;13517;59.320;18.042;2024-02-28T02:47:12;101171.63;;;0.87;100.00
25658;BME280;13517;59.320;18.042;2024-02-28T02:49:37;101209.47;;;1.04;100.00
25658;BME280;13517;59.320;18.042;2024-02-28T02:52:03;101205.00;;;1.05;100.00
25658;BME280;13517;59.320;18.042;2024-02-28T02:54:28;101189.22;;;0.95;100.00
25658;BME280;13517;59.320;18.042;2024-02-28T02:56:53;101210.31;;;1.05;100.00
25658;BME280;13517;59.320;18.042;2024-02-28T02:59:19;101212.84;;;1.14;100.00
25658;BME280;13517;59.320;18.042;2024-02-28T03:01:47;101181.31;;;0.91;100.00
25658;BME280;13517;59.320;18.042;2024-02-28T03:04:12;101219.13;;;1.10;100.00
25658;BME280;13517;59.320;18.042;2024-02-28T03:06:38;101196.38;;;0.90;100.00
25658;BME280;13517;59.320;18.042;2024-02-28T03:09:03;101184.00;;;0.88;100.00
25658;BME280;13517;59.320;18.042;2024-02-28T03:11:28;101209.41;;;1.07;100.00
25658;BME280;13517;59.320;18.042;2024-02-28T03:13:54;101164.00;;;0.66;100.00
25658;BME280;13517;59.320;18.042;2024-02-28T03:16:19;101178.84;;;0.80;100.00
25658;BME280;13517;59.320;18.042;2024-02-28T03:18:45;101174.44;;;0.79;100.00
25658;BME280;13517;59.320;18.042;2024-02-28T03:21:10;101192.81;;;0.91;100.00
25658;BME280;13517;59.320;18.042;2024-02-28T03:23:36;101192.81;;;0.91;100.00
25658;BME280;13517;59.320;18.042;2024-02-28T03:26:01;101178.75;;;0.86;100.00
25658;BME280;13517;59.320;18.042;2024-02-28T03:28:28;101190.19;;;0.90;100.00
25658;BME280;13517;59.320;18.042;2024-02-28T03:30:53;101182.25;;;0.88;100.00
25658;BME280;13517;59.320;18.042;2024-02-28T03:33:19;101192.78;;;0.94;100.00
25658;BME280;13517;59.320;18.042;2024-02-28T03:35:44;101162.88;;;0.80;100.00
25658;BME280;13517;59.320;18.042;2024-02-28T03:38:10;101190.22;;;0.88;100.00
25658;BME280;13517;59.320;18.042;2024-02-28T03:40:35;101168.19;;;0.80;100.00
25658;BME280;13517;59.320;18.042;2024-02-28T03:43:01;101200.94;;;0.85;100.00
25658;BME280;13517;59.320;18.042;2024-02-28T03:45:28;101141.91;;;0.61;100.00
25658;BME280;13517;59.320;18.042;2024-02-28T03:47:53;101154.19;;;0.68;100.00
25658;BME280;13517;59.320;18.042;2024-02-28T03:50:18;101195.53;;;0.90;100.00
25658;BME280;13517;59.320;18.042;2024-02-28T03:52:44;101171.69;;;0.84;100.00
25658;BME280;13517;59.320;18.042;2024-02-28T03:55:09;101171.69;;;0.82;100.00
25658;BME280;13517;59.320;18.042;2024-02-28T03:57:35;101186.75;;;0.83;100.00
25658;BME280;13517;59.320;18.042;2024-02-28T04:00:02;101194.63;;;0.89;100.00
25658;BME280;13517;59.320;18.042;2024-02-28T04:02:27;101175.19;;;0.84;100.00
25658;BME280;13517;59.320;18.042;2024-02-28T04:04:53;101193.69;;;0.93;100.00
25658;BME280;13517;59.320;18.042;2024-02-28T04:07:18;101178.84;;;0.78;100.00
25658;BME280;13517;59.320;18.042;2024-02-28T04:09:43;101162.19;;;0.67;100.00
25658;BME280;13517;59.320;18.042;2024-02-28T04:12:09;101187.63;;;0.85;100.00
25658;BME280;13517;59.320;18.042;2024-02-28T04:14:37;101158.56;;;0.73;100.00
25658;BME280;13517;59.320;18.042;2024-02-28T04:17:03;101161.16;;;0.76;100.00
25658;BME280;13517;59.320;18.042;2024-02-28T04:19:28;101172.69;;;0.76;100.00
25658;BME280;13517;59.320;18.042;2024-02-28T04:21:57;101162.91;;;0.77;100.00
25658;BME280;13517;59.320;18.042;2024-02-28T04:24:22;101124.28;;;0.56;100.00
25658;BME280;13517;59.320;18.042;2024-02-28T04:26:48;101157.69;;;0.71;100.00
25658;BME280;13517;59.320;18.042;2024-02-28T04:29:13;101148.03;;;0.66;100.00
25658;BME280;13517;59.320;18.042;2024-02-28T04:31:39;101161.22;;;0.73;100.00
25658;BME280;13517;59.320;18.042;2024-02-28T04:34:05;101142.72;;;0.65;100.00
25658;BME280;13517;59.320;18.042;2024-02-28T04:36:30;101169.88;;;0.84;100.00
25658;BME280;13517;59.320;18.042;2024-02-28T04:38:56;101150.69;;;0.66;100.00
25658;BME280;13517;59.320;18.042;2024-02-28T04:41:21;101150.72;;;0.63;100.00
25658;BME280;13517;59.320;18.042;2024-02-28T04:43:46;101161.25;;;0.70;100.00
25658;BME280;13517;59.320;18.042;2024-02-28T04:46:12;101180.59;;;0.81;100.00
25658;BME280;13517;59.320;18.042;2024-02-28T04:48:37;101160.41;;;0.67;100.00
25658;BME280;13517;59.320;18.042;2024-02-28T04:51:03;101177.97;;;0.78;100.00
25658;BME280;13517;59.320;18.042;2024-02-28T04:53:28;101142.06;;;0.52;100.00
25658;BME280;13517;59.320;18.042;2024-02-28T04:55:54;101157.81;;;0.64;100.00
25658;BME280;13517;59.320;18.042;2024-02-28T04:58:19;101159.53;;;0.67;100.00
25658;BME280;13517;59.320;18.042;2024-02-28T05:00:44;101174.44;;;0.77;100.00
25658;BME280;13517;59.320;18.042;2024-02-28T05:03:10;101162.16;;;0.70;100.00
25658;BME280;13517;59.320;18.042;2024-02-28T05:05:35;101141.06;;;0.58;100.00
25658;BME280;13517;59.320;18.042;2024-02-28T05:08:00;101161.31;;;0.66;100.00
25658;BME280;13517;59.320;18.042;2024-02-28T05:10:26;101133.09;;;0.59;100.00
25658;BME280;13517;59.320;18.042;2024-02-28T05:12:51;101168.19;;;0.80;100.00
25658;BME280;13517;59.320;18.042;2024-02-28T05:15:17;101166.38;;;0.82;100.00
25658;BME280;13517;59.320;18.042;2024-02-28T05:17:42;101150.59;;;0.73;100.00
25658;BME280;13517;59.320;18.042;2024-02-28T05:20:08;101150.59;;;0.73;100.00
25658;BME280;13517;59.320;18.042;2024-02-28T05:22:34;101137.44;;;0.63;100.00
25658;BME280;13517;59.320;18.042;2024-02-28T05:24:59;101162.13;;;0.72;100.00
25658;BME280;13517;59.320;18.042;2024-02-28T05:27:25;101089.19;;;0.33;100.00
25658;BME280;13517;59.320;18.042;2024-02-28T05:29:50;101129.44;;;0.63;100.00
25658;BME280;13517;59.320;18.042;2024-02-28T05:32:15;101118.97;;;0.56;100.00
25658;BME280;13517;59.320;18.042;2024-02-28T05:34:42;101175.16;;;0.87;100.00
25658;BME280;13517;59.320;18.042;2024-02-28T05:37:07;101175.16;;;0.87;100.00
25658;BME280;13517;59.320;18.042;2024-02-28T05:39:32;101162.88;;;0.80;100.00
25658;BME280;13517;59.320;18.042;2024-02-28T05:41:58;101161.84;;;0.89;100.00
25658;BME280;13517;59.320;18.042;2024-02-28T05:44:23;101136.38;;;0.74;100.00
25658;BME280;13517;59.320;18.042;2024-02-28T05:46:50;101164.47;;;0.90;100.00
25658;BME280;13517;59.320;18.042;2024-02-28T05:49:15;101142.53;;;0.77;100.00
25658;BME280;13517;59.320;18.042;2024-02-28T05:51:41;101143.38;;;0.78;100.00
25658;BME280;13517;59.320;18.042;2024-02-28T05:54:06;101152.19;;;0.81;100.00
25658;BME280;13517;59.320;18.042;2024-02-28T05:56:31;101108.31;;;0.57;100.00
25658;BME280;13517;59.320;18.042;2024-02-28T05:58:57;101140.72;;;0.78;100.00
25658;BME280;13517;59.320;18.042;2024-02-28T06:01:23;101150.38;;;0.85;100.00
25658;BME280;13517;59.320;18.042;2024-02-28T06:03:48;101167.13;;;0.90;100.00
25658;BME280;13517;59.320;18.042;2024-02-28T06:06:14;101143.34;;;0.81;100.00
25658;BME280;13517;59.320;18.042;2024-02-28T06:08:40;101126.59;;;0.74;100.00
25658;BME280;13517;59.320;18.042;2024-02-28T06:11:06;101120.44;;;0.74;100.00
25658;BME280;13517;59.320;18.042;2024-02-28T06:13:32;101156.34;;;0.98;100.00
25658;BME280;13517;59.320;18.042;2024-02-28T06:15:58;101150.22;;;0.94;100.00
25658;BME280;13517;59.320;18.042;2024-02-28T06:18:25;101139.75;;;0.85;100.00
25658;BME280;13517;59.320;18.042;2024-02-28T06:20:56;101134.47;;;0.82;100.00
25658;BME280;13517;59.320;18.042;2024-02-28T06:23:22;101156.34;;;1.00;100.00
25658;BME280;13517;59.320;18.042;2024-02-28T06:25:48;101144.94;;;0.91;100.00
25658;BME280;13517;59.320;18.042;2024-02-28T06:28:13;101134.25;;;0.96;100.00
25658;BME280;13517;59.320;18.042;2024-02-28T06:30:38;101130.75;;;0.92;100.00
25658;BME280;13517;59.320;18.042;2024-02-28T06:33:04;101113.16;;;0.84;100.00
25658;BME280;13517;59.320;18.042;2024-02-28T06:35:30;101132.44;;;0.97;100.00
25658;BME280;13517;59.320;18.042;2024-02-28T06:37:55;101109.69;;;0.80;100.00
25658;BME280;13517;59.320;18.042;2024-02-28T06:40:21;101140.50;;;0.92;100.00
25658;BME280;13517;59.320;18.042;2024-02-28T06:42:46;101169.41;;;1.12;100.00
25658;BME280;13517;59.320;18.042;2024-02-28T06:45:12;101142.13;;;1.01;100.00
25658;BME280;13517;59.320;18.042;2024-02-28T06:47:37;101160.47;;;1.15;100.00
25658;BME280;13517;59.320;18.042;2024-02-28T06:50:03;101142.03;;;1.07;100.00
25658;BME280;13517;59.320;18.042;2024-02-28T06:52:29;101160.41;;;1.19;100.00
25658;BME280;13517;59.320;18.042;2024-02-28T06:54:55;101149.84;;;1.15;100.00
25658;BME280;13517;59.320;18.042;2024-02-28T06:57:20;101146.31;;;1.14;100.00
25658;BME280;13517;59.320;18.042;2024-02-28T06:59:46;101163.75;;;1.31;100.00
25658;BME280;13517;59.320;18.042;2024-02-28T07:02:11;101104.09;;;0.95;100.00
25658;BME280;13517;59.320;18.042;2024-02-28T07:04:38;101147.06;;;1.21;100.00
25658;BME280;13517;59.320;18.042;2024-02-28T07:07:03;101145.19;;;1.28;100.00
25658;BME280;13517;59.320;18.042;2024-02-28T07:09:30;101144.31;;;1.26;100.00
25658;BME280;13517;59.320;18.042;2024-02-28T07:11:57;101158.34;;;1.34;100.00
25658;BME280;13517;59.320;18.042;2024-02-28T07:14:23;101148.66;;;1.31;100.00
25658;BME280;13517;59.320;18.042;2024-02-28T07:16:48;101145.09;;;1.32;100.00
25658;BME280;13517;59.320;18.042;2024-02-28T07:19:14;101166.94;;;1.48;100.00
25658;BME280;13517;59.320;18.042;2024-02-28T07:21:39;101143.97;;;1.44;100.00
25658;BME280;13517;59.320;18.042;2024-02-28T07:24:05;101158.78;;;1.58;100.00
25658;BME280;13517;59.320;18.042;2024-02-28T07:26:31;101136.78;;;1.49;100.00
25658;BME280;13517;59.320;18.042;2024-02-28T07:28:57;101148.06;;;1.61;100.00
25658;BME280;13517;59.320;18.042;2024-02-28T07:31:22;101143.66;;;1.60;100.00
25658;BME280;13517;59.320;18.042;2024-02-28T07:33:48;101152.56;;;1.59;100.00
25658;BME280;13517;59.320;18.042;2024-02-28T07:36:13;101092.66;;;1.36;100.00
25658;BME280;13517;59.320;18.042;2024-02-28T07:38:41;101139.94;;;1.67;100.00
25658;BME280;13517;59.320;18.042;2024-02-28T07:41:07;101139.03;;;1.68;100.00
25658;BME280;13517;59.320;18.042;2024-02-28T07:43:32;101132.91;;;1.63;100.00
25658;BME280;13517;59.320;18.042;2024-02-28T07:46:05;101154.97;;;1.71;100.00
25658;BME280;13517;59.320;18.042;2024-02-28T07:48:31;101154.75;;;1.81;100.00
25658;BME280;13517;59.320;18.042;2024-02-28T07:50:56;101139.72;;;1.78;100.00
25658;BME280;13517;59.320;18.042;2024-02-28T07:53:22;101150.13;;;1.89;100.00
25658;BME280;13517;59.320;18.042;2024-02-28T07:55:47;101113.53;;;1.58;100.00
25658;BME280;13517;59.320;18.042;2024-02-28T07:58:14;101131.69;;;1.81;100.00
25658;BME280;13517;59.320;18.042;2024-02-28T08:00:40;101115.06;;;1.68;100.00
25658;BME280;13517;59.320;18.042;2024-02-28T08:03:06;101158.03;;;1.94;100.00
25658;BME280;13517;59.320;18.042;2024-02-28T08:05:31;101153.50;;;1.97;100.00
25658;BME280;13517;59.320;18.042;2024-02-28T08:08:00;101100.91;;;1.66;100.00
25658;BME280;13517;59.320;18.042;2024-02-28T08:10:25;101146.41;;;1.98;100.00
25658;BME280;13517;59.320;18.042;2024-02-28T08:12:51;101088.31;;;1.73;100.00
25658;BME280;13517;59.320;18.042;2024-02-28T08:15:16;101125.78;;;2.06;100.00
25658;BME280;13517;59.320;18.042;2024-02-28T08:17:42;101137.19;;;2.13;100.00
25658;BME280;13517;59.320;18.042;2024-02-28T08:20:07;101124.00;;;2.07;100.00
25658;BME280;13517;59.320;18.042;2024-02-28T08:22:33;101130.09;;;2.12;100.00
25658;BME280;13517;59.320;18.042;2024-02-28T08:24:59;101096.81;;;1.90;100.00
25658;BME280;13517;59.320;18.042;2024-02-28T08:27:24;101124.94;;;2.06;100.00
25658;BME280;13517;59.320;18.042;2024-02-28T08:29:50;101131.19;;;2.03;100.00
25658;BME280;13517;59.320;18.042;2024-02-28T08:32:17;101138.09;;;2.12;100.00
25658;BME280;13517;59.320;18.042;2024-02-28T08:34:44;101142.53;;;2.13;100.00
25658;BME280;13517;59.320;18.042;2024-02-28T08:37:11;101139.13;;;2.04;100.00
25658;BME280;13517;59.320;18.042;2024-02-28T08:39:37;101162.88;;;2.15;100.00
25658;BME280;13517;59.320;18.042;2024-02-28T08:42:03;101128.78;;;1.92;100.00
25658;BME280;13517;59.320;18.042;2024-02-28T08:44:28;101099.84;;;1.75;100.00
25658;BME280;13517;59.320;18.042;2024-02-28T08:46:53;101138.16;;;2.09;100.00
25658;BME280;13517;59.320;18.042;2024-02-28T08:49:19;101160.09;;;2.22;100.00
25658;BME280;13517;59.320;18.042;2024-02-28T08:51:44;101103.03;;;1.91;100.00
25658;BME280;13517;59.320;18.042;2024-02-28T08:54:10;101114.31;;;2.02;100.00
25658;BME280;13517;59.320;18.042;2024-02-28T08:56:35;101148.38;;;2.29;100.00
25658;BME280;13517;59.320;18.042;2024-02-28T08:59:00;101156.00;;;2.44;100.00
25658;BME280;13517;59.320;18.042;2024-02-28T09:01:26;101141.78;;;2.45;100.00
25658;BME280;13517;59.320;18.042;2024-02-28T09:03:51;101135.63;;;2.42;100.00
25658;BME280;13517;59.320;18.042;2024-02-28T09:06:17;101128.50;;;2.42;100.00
25658;BME280;13517;59.320;18.042;2024-02-28T09:08:42;101109.03;;;2.39;100.00
25658;BME280;13517;59.320;18.042;2024-02-28T09:11:08;101137.09;;;2.55;100.00
25658;BME280;13517;59.320;18.042;2024-02-28T09:13:33;101139.78;;;2.54;100.00
25658;BME280;13517;59.320;18.042;2024-02-28T09:16:00;101143.00;;;2.67;100.00
25658;BME280;13517;59.320;18.042;2024-02-28T09:18:26;101123.66;;;2.58;100.00
25658;BME280;13517;59.320;18.042;2024-02-28T09:20:51;101131.69;;;2.57;100.00
25658;BME280;13517;59.320;18.042;2024-02-28T09:23:17;101098.19;;;2.47;100.00
25658;BME280;13517;59.320;18.042;2024-02-28T09:25:42;101144.59;;;2.76;100.00
25658;BME280;13517;59.320;18.042;2024-02-28T09:28:08;101088.44;;;2.45;100.00
25658;BME280;13517;59.320;18.042;2024-02-28T09:30:35;101143.78;;;2.72;100.00
25658;BME280;13517;59.320;18.042;2024-02-28T09:33:01;101122.72;;;2.61;100.00
25658;BME280;13517;59.320;18.042;2024-02-28T09:35:26;101125.13;;;2.72;100.00
25658;BME280;13517;59.320;18.042;2024-02-28T09:37:51;101063.56;;;2.43;100.00
25658;BME280;13517;59.320;18.042;2024-02-28T09:40:17;101137.13;;;2.89;100.00
25658;BME280;13517;59.320;18.042;2024-02-28T09:42:51;101133.53;;;2.90;100.00
25658;BME280;13517;59.320;18.042;2024-02-28T09:45:20;101134.25;;;2.98;100.00
25658;BME280;13517;59.320;18.042;2024-02-28T09:47:46;101066.72;;;2.59;100.00
25658;BME280;13517;59.320;18.042;2024-02-28T09:50:12;101124.56;;;2.94;100.00
25658;BME280;13517;59.320;18.042;2024-02-28T09:52:38;101129.75;;;2.98;100.00
25658;BME280;13517;59.320;18.042;2024-02-28T09:55:04;101133.44;;;2.94;100.00
25658;BME280;13517;59.320;18.042;2024-02-28T09:57:31;101117.00;;;2.75;100.00
25658;BME280;13517;59.320;18.042;2024-02-28T09:59:58;101143.56;;;2.80;100.00
25658;BME280;13517;59.320;18.042;2024-02-28T10:02:25;101122.78;;;2.58;100.00
25658;BME280;13517;59.320;18.042;2024-02-28T10:04:51;101134.34;;;2.58;100.00
25658;BME280;13517;59.320;18.042;2024-02-28T10:07:17;101149.38;;;2.61;100.00
25658;BME280;13517;59.320;18.042;2024-02-28T10:09:43;101129.16;;;2.52;100.00
25658;BME280;13517;59.320;18.042;2024-02-28T10:12:09;101136.09;;;2.59;100.00
25658;BME280;13517;59.320;18.042;2024-02-28T10:14:34;101125.56;;;2.53;100.00
25658;BME280;13517;59.320;18.042;2024-02-28T10:17:00;101093.00;;;2.40;100.00
25658;BME280;13517;59.320;18.042;2024-02-28T10:19:25;101112.97;;;2.60;100.00
25658;BME280;13517;59.320;18.042;2024-02-28T10:21:51;101122.47;;;2.70;100.00
25658;BME280;13517;59.320;18.042;2024-02-28T10:24:17;101112.72;;;2.69;100.00
25658;BME280;13517;59.320;18.042;2024-02-28T10:26:46;101105.91;;;2.57;100.00
25658;BME280;13517;59.320;18.042;2024-02-28T10:29:22;101103.03;;;2.65;100.00
25658;BME280;13517;59.320;18.042;2024-02-28T10:31:48;101096.09;;;2.58;100.00
25658;BME280;13517;59.320;18.042;2024-02-28T10:34:16;101096.03;;;2.61;100.00
25658;BME280;13517;59.320;18.042;2024-02-28T10:36:43;101104.81;;;2.66;100.00
25658;BME280;13517;59.320;18.042;2024-02-28T10:39:09;101135.47;;;2.84;100.00
25658;BME280;13517;59.320;18.042;2024-02-28T10:41:37;101094.84;;;2.73;100.00
25658;BME280;13517;59.320;18.042;2024-02-28T10:44:03;101068.63;;;2.54;100.00
25658;BME280;13517;59.320;18.042;2024-02-28T10:46:29;101133.38;;;2.96;100.00
25658;BME280;13517;59.320;18.042;2024-02-28T10:48:55;101093.78;;;2.79;100.00
25658;BME280;13517;59.320;18.042;2024-02-28T10:51:26;101119.47;;;2.84;100.00
25658;BME280;13517;59.320;18.042;2024-02-28T10:54:12;101086.06;;;2.68;100.00
25658;BME280;13517;59.320;18.042;2024-02-28T10:56:42;101112.16;;;2.91;100.00
25658;BME280;13517;59.320;18.042;2024-02-28T10:59:09;101101.66;;;2.85;100.00
25658;BME280;13517;59.320;18.042;2024-02-28T11:01:44;101117.69;;;2.83;100.00
25658;BME280;13517;59.320;18.042;2024-02-28T11:04:11;101074.56;;;2.66;100.00
25658;BME280;13517;59.320;18.042;2024-02-28T11:06:48;101072.03;;;2.61;100.00
25658;BME280;13517;59.320;18.042;2024-02-28T11:09:19;101090.16;;;2.83;100.00
25658;BME280;13517;59.320;18.042;2024-02-28T11:11:44;101103.72;;;3.07;100.00
25658;BME280;13517;59.320;18.042;2024-02-28T11:14:15;101072.75;;;3.01;100.00
25658;BME280;13517;59.320;18.042;2024-02-28T11:16:40;101063.50;;;3.15;100.00
25658;BME280;13517;59.320;18.042;2024-02-28T11:19:19;101040.41;;;3.12;100.00
25658;BME280;13517;59.320;18.042;2024-02-28T11:21:45;101055.78;;;3.35;100.00
25658;BME280;13517;59.320;18.042;2024-02-28T11:24:12;101054.66;;;3.44;100.00
25658;BME280;13517;59.320;18.042;2024-02-28T11:26:38;101039.66;;;3.38;100.00
25658;BME280;13517;59.320;18.042;2024-02-28T11:29:03;101062.75;;;3.39;100.00
25658;BME280;13517;59.320;18.042;2024-02-28T11:31:29;101074.13;;;3.48;100.00
25658;BME280;13517;59.320;18.042;2024-02-28T11:33:54;101045.97;;;3.36;100.00
25658;BME280;13517;59.320;18.042;2024-02-28T11:36:19;101088.47;;;3.74;100.00
25658;BME280;13517;59.320;18.042;2024-02-28T11:38:45;101083.88;;;3.79;100.00
25658;BME280;13517;59.320;18.042;2024-02-28T11:41:11;101065.16;;;3.79;100.00
25658;BME280;13517;59.320;18.042;2024-02-28T11:43:36;101032.03;;;3.56;100.00
25658;BME280;13517;59.320;18.042;2024-02-28T11:46:08;101079.34;;;3.81;100.00
25658;BME280;13517;59.320;18.042;2024-02-28T11:48:33;101062.38;;;3.82;100.00
25658;BME280;13517;59.320;18.042;2024-02-28T11:50:59;101053.66;;;3.77;100.00
25658;BME280;13517;59.320;18.042;2024-02-28T11:53:25;101054.72;;;3.71;100.00
25658;BME280;13517;59.320;18.042;2024-02-28T11:55:52;101044.31;;;3.62;100.00
25658;BME280;13517;59.320;18.042;2024-02-28T11:58:18;101071.44;;;3.78;100.00
25658;BME280;13517;59.320;18.042;2024-02-28T12:00:48;101063.47;;;3.76;100.00
25658;BME280;13517;59.320;18.042;2024-02-28T12:03:13;101027.03;;;3.44;100.00
25658;BME280;13517;59.320;18.042;2024-02-28T12:05:43;101037.56;;;3.50;100.00
25658;BME280;13517;59.320;18.042;2024-02-28T12:08:10;101007.06;;;3.27;100.00
25658;BME280;13517;59.320;18.042;2024-02-28T12:10:36;101052.84;;;3.45;100.00
25658;BME280;13517;59.320;18.042;2024-02-28T12:13:01;101030.31;;;3.23;100.00
25658;BME280;13517;59.320;18.042;2024-02-28T12:15:31;101054.97;;;3.33;100.00
25658;BME280;13517;59.320;18.042;2024-02-28T12:17:57;101016.59;;;3.04;100.00
25658;BME280;13517;59.320;18.042;2024-02-28T12:20:25;101043.22;;;3.07;100.00
25658;BME280;13517;59.320;18.042;2024-02-28T12:22:51;101033.66;;;3.00;100.00
25658;BME280;13517;59.320;18.042;2024-02-28T12:25:16;101005.63;;;2.83;100.00
25658;BME280;13517;59.320;18.042;2024-02-28T12:27:42;101016.50;;;3.09;100.00
25658;BME280;13517;59.320;18.042;2024-02-28T12:30:07;100986.72;;;2.91;100.00
25658;BME280;13517;59.320;18.042;2024-02-28T12:32:33;100975.19;;;2.91;100.00
25658;BME280;13517;59.320;18.042;2024-02-28T12:34:58;100981.19;;;2.99;100.00